Current | Forecast
Updated: 12:30 PM +09 on April 21, 2018
Observed at Yakutsk, Russia
Temperature 34°F
Windchill 26°F
Humidity 35%
Dew Point 9°F
Wind NW at 9 mph
Wind Gust 20 mph
Pressure 30.04 in (Steady)
Conditions Clear
Visibility -
UV N/A
Clouds
Yesterday's Maximum 43°F
Yesterday's Minimum 27°F approx.
Yesterday's Heating Degree Days 30 approx.
Sunrise4:37 AM +09
Sunset7:58 PM +09
Moon Rise7:48 AM +09
Moon Set1:20 AM +09
Moon PhaseMoon Phase
Waxing Crescent
Raw METARMETAR UEEE 210330Z 32004G09MPS CAVOK 01/M13 Q1017 R23L/09//60 NOSIG RMK QFE754


Monday
. High: 51° F.
Tuesday
. High: 53° F.
Wednesday
. High: 57° F.
Thursday
. High: 55° F.
Friday
. High: 57° F.
Saturday
. High: 64° F.
Sunday
. High: 57° F.
Monday
. High: 59° F.

Units: English | Metric

Find the Weather for any City, State or Zipcode, or Country:

U.S. State List | Severe Weather | Tropical Storms | Ski Conditions
United States | Canada | Central America | South America | Asia | Europe | Australia | Africa | Islands

Weather Underground

© Copyright 2018
The Weather Company, LLC